Time;durP1;ratioP1;P1;durP2;ratioP2;P2;SDS_P1;SDS_P2;PMS_P1;PMS_P2;Temp;Humidity;BMP_temperature;BMP_pressure;BME280_temperature;BME280_humidity;BME280_pressure;Samples;Min_cycle;Max_cycle;Signal;HPM_P1;HPM_P2
2022/02/08 00:01:28;;;;;;;;;;;;;;;20.80;40.75;102389.94;7283320;19;154356;-50
2022/02/08 00:03:55;;;;;;;;;;;;;;;20.77;40.84;102393.28;7292310;19;152058;-49
2022/02/08 00:08:52;;;;;;;;;;;;;;;20.73;41.26;102383.72;7282161;19;152272;-51
2022/02/08 00:11:19;;;;;;;;;;;;;;;20.71;40.82;102391.56;7284436;19;152371;-50
2022/02/08 00:13:47;;;;;;;;;;;;;;;20.68;41.18;102390.16;7283982;19;153962;-50
2022/02/08 00:16:14;;;;;;;;;;;;;;;20.67;41.14;102390.44;7281561;19;152219;-50
2022/02/08 00:18:41;;;;;;;;;;;;;;;20.65;41.15;102382.28;7285150;19;152775;-51
2022/02/08 00:21:08;;;;;;;;;;;;;;;20.62;41.45;102385.66;7282253;19;154330;-50
2022/02/08 00:23:35;;;;;;;;;;;;;;;20.60;41.77;102382.25;7284917;19;151976;-50
2022/02/08 00:26:02;;;;;;;;;;;;;;;20.58;41.46;102381.66;7291036;19;153376;-50
2022/02/08 00:28:29;;;;;;;;;;;;;;;20.56;41.75;102367.06;7282574;19;151816;-50
2022/02/08 00:30:56;;;;;;;;;;;;;;;20.56;41.63;102383.06;7284607;19;153143;-50
2022/02/08 00:33:23;;;;;;;;;;;;;;;20.53;41.81;102376.06;7282992;19;154019;-50
2022/02/08 00:35:51;;;;;;;;;;;;;;;20.50;41.99;102376.59;7283331;19;151500;-49
2022/02/08 00:38:19;;;;;;;;;;;;;;;20.48;42.22;102363.94;7282293;19;153041;-50
2022/02/08 00:40:48;;;;;;;;;;;;;;;20.46;42.21;102366.16;7283320;19;154026;-50
2022/02/08 00:43:22;;;;;;;;;;;;;;;20.42;42.60;102371.50;7283304;19;151870;-50
2022/02/08 00:45:57;;;;;;;;;;;;;;;20.41;42.67;102369.81;7281330;19;152195;-49
2022/02/08 00:48:30;;;;;;;;;;;;;;;20.39;42.69;102380.47;7289743;19;154314;-50
2022/02/08 00:50:58;;;;;;;;;;;;;;;20.35;42.53;102377.34;7283633;19;153059;-50
2022/02/08 00:53:25;;;;;;;;;;;;;;;20.33;42.65;102367.53;7281693;19;153606;-50
2022/02/08 00:55:52;;;;;;;;;;;;;;;20.30;43.02;102368.94;7281138;19;152076;-51
2022/02/08 00:58:19;;;;;;;;;;;;;;;20.28;42.60;102387.09;7282051;19;153409;-50
2022/02/08 01:00:47;;;;;;;;;;;;;;;20.24;42.78;102389.63;7282599;19;154198;-50
2022/02/08 01:03:16;;;;;;;;;;;;;;;20.23;42.76;102395.50;7284228;19;151962;-50
2022/02/08 01:05:48;;;;;;;;;;;;;;;20.22;43.06;102389.03;7280894;19;152607;-50
2022/02/08 01:08:16;;;;;;;;;;;;;;;20.19;42.81;102394.34;7279397;19;153537;-50
2022/02/08 01:10:43;;;;;;;;;;;;;;;20.16;42.81;102392.94;7291302;19;151632;-50
2022/02/08 01:13:10;;;;;;;;;;;;;;;20.14;42.94;102395.16;7281543;19;153469;-50
2022/02/08 01:15:37;;;;;;;;;;;;;;;20.12;43.24;102394.59;7279461;19;152078;-50
2022/02/08 01:18:05;;;;;;;;;;;;;;;20.10;43.13;102384.75;7282034;19;153231;-51
2022/02/08 01:20:36;;;;;;;;;;;;;;;20.09;43.10;102399.88;7280957;19;154523;-50
2022/02/08 01:23:05;;;;;;;;;;;;;;;20.08;43.14;102392.59;7282139;19;151929;-50
2022/02/08 01:25:39;;;;;;;;;;;;;;;20.04;43.45;102388.63;7281991;19;152769;-50
2022/02/08 01:28:20;;;;;;;;;;;;;;;20.05;43.47;102393.13;7281572;19;153558;-49
2022/02/08 01:30:58;;;;;;;;;;;;;;;20.02;43.31;102388.06;7290093;19;151916;-50
2022/02/08 01:38:33;;;;;;;;;;;;;;;19.94;43.73;102395.84;7280328;19;152709;-50
2022/02/08 01:48:45;;;;;;;;;;;;;;;19.84;43.52;102395.78;7279185;19;153302;-50
2022/02/08 01:51:12;;;;;;;;;;;;;;;19.82;43.85;102400.81;7278722;19;151972;-50
2022/02/08 01:53:39;;;;;;;;;;;;;;;19.82;43.88;102405.56;7286372;19;152259;-51
2022/02/08 01:56:06;;;;;;;;;;;;;;;19.80;43.53;102408.66;7288191;19;152015;-49
2022/02/08 01:58:33;;;;;;;;;;;;;;;19.78;43.39;102405.28;7288472;19;153584;-50
2022/02/08 02:01:00;;;;;;;;;;;;;;;19.77;43.69;102397.97;7286548;19;154145;-49
2022/02/08 02:03:27;;;;;;;;;;;;;;;19.75;43.54;102408.63;7288016;19;151892;-50
2022/02/08 02:05:54;;;;;;;;;;;;;;;19.73;43.48;102413.63;7288659;19;153160;-49
2022/02/08 02:08:22;;;;;;;;;;;;;;;19.71;43.54;102409.44;7282488;19;154056;-50
2022/02/08 02:10:48;;;;;;;;;;;;;;;19.69;43.77;102409.69;7284152;19;151923;-50
2022/02/08 02:13:37;;;;;;;;;;;;;;;19.70;43.71;102413.34;7286916;19;152788;-50
2022/02/08 02:16:05;;;;;;;;;;;;;;;19.66;43.91;102417.78;7292316;19;153224;-50
2022/02/08 02:18:32;;;;;;;;;;;;;;;19.66;43.89;102420.59;7287986;19;152861;-50
2022/02/08 02:20:59;;;;;;;;;;;;;;;19.64;44.23;102420.00;7286210;19;153322;-50
2022/02/08 02:23:26;;;;;;;;;;;;;;;19.62;44.16;102428.69;7287903;19;152272;-50
2022/02/08 02:25:53;;;;;;;;;;;;;;;19.59;43.73;102412.38;7286493;19;153236;-50
2022/02/08 02:28:21;;;;;;;;;;;;;;;19.57;43.88;102409.03;7282456;19;153439;-51
2022/02/08 02:30:48;;;;;;;;;;;;;;;19.57;43.95;102402.56;7285754;19;151791;-50
2022/02/08 02:33:15;;;;;;;;;;;;;;;19.55;43.92;102405.63;7286801;19;152056;-50
2022/02/08 02:35:46;;;;;;;;;;;;;;;19.53;44.18;102403.06;7286249;19;152480;-50
2022/02/08 02:38:13;;;;;;;;;;;;;;;19.52;44.08;102408.97;7295758;19;152186;-50
2022/02/08 02:40:42;;;;;;;;;;;;;;;19.52;44.56;102406.16;7284098;19;153948;-50
2022/02/08 02:43:10;;;;;;;;;;;;;;;19.49;44.07;102412.28;7286571;19;151884;-50
2022/02/08 02:45:37;;;;;;;;;;;;;;;19.49;44.19;102412.28;7286857;19;152692;-49
2022/02/08 02:48:04;;;;;;;;;;;;;;;19.47;44.65;102420.13;7282046;19;153457;-49
2022/02/08 02:50:32;;;;;;;;;;;;;;;19.46;44.23;102412.81;7285270;19;151470;-50
2022/02/08 02:52:59;;;;;;;;;;;;;;;19.44;44.30;102424.28;7286136;19;152753;-50
2022/02/08 02:55:31;;;;;;;;;;;;;;;19.43;44.31;102419.81;7285850;19;152397;-49
2022/02/08 02:58:00;;;;;;;;;;;;;;;19.42;44.38;102415.28;7286709;19;152392;-50
2022/02/08 03:00:36;;;;;;;;;;;;;;;19.41;44.41;102423.94;7293712;19;152745;-50
2022/02/08 03:20:48;;;;;;;;;;;;;;;19.28;45.40;102419.63;7283693;19;153235;-49
2022/02/08 03:23:15;;;;;;;;;;;;;;;19.28;45.43;102410.38;7291902;19;152781;-50
2022/02/08 03:25:42;;;;;;;;;;;;;;;19.25;45.39;102410.91;7283570;19;153218;-49
2022/02/08 03:28:09;;;;;;;;;;;;;;;19.24;45.44;102417.63;7284568;19;153976;-49
2022/02/08 03:30:36;;;;;;;;;;;;;;;19.22;45.28;102420.66;7283911;19;151908;-49
2022/02/08 03:33:03;;;;;;;;;;;;;;;19.21;45.32;102406.94;7283586;19;152366;-49
2022/02/08 03:35:31;;;;;;;;;;;;;;;19.21;45.55;102410.59;7284233;19;152616;-49
2022/02/08 03:38:02;;;;;;;;;;;;;;;19.19;45.61;102406.34;7284814;19;152272;-50
2022/02/08 03:40:38;;;;;;;;;;;;;;;19.18;45.65;102413.06;7285959;19;153030;-49
2022/02/08 03:45:38;;;;;;;;;;;;;;;19.14;46.17;102406.28;7282317;19;152754;-50
2022/02/08 03:48:05;;;;;;;;;;;;;;;19.14;45.96;102404.34;7281884;19;154514;-50
2022/02/08 03:50:32;;;;;;;;;;;;;;;19.13;46.22;102401.78;7281717;19;151644;-50
2022/02/08 03:52:59;;;;;;;;;;;;;;;19.10;46.10;102412.44;7284526;19;151878;-49
2022/02/08 03:55:26;;;;;;;;;;;;;;;19.10;46.28;102406.81;7284507;19;153301;-49
2022/02/08 03:57:54;;;;;;;;;;;;;;;19.09;46.18;102410.72;7283894;19;151884;-50
2022/02/08 04:00:22;;;;;;;;;;;;;;;19.08;46.38;102406.22;7283533;19;153230;-49
2022/02/08 04:02:53;;;;;;;;;;;;;;;19.07;46.18;102400.91;7283562;19;153259;-50
2022/02/08 04:07:55;;;;;;;;;;;;;;;19.04;46.29;102402.25;7280111;19;154036;-50
2022/02/08 04:10:25;;;;;;;;;;;;;;;19.03;46.79;102394.16;7282909;19;152102;-50
2022/02/08 04:18:14;;;;;;;;;;;;;;;19.00;46.94;102403.06;7281040;19;152132;-50
2022/02/08 04:45:45;;;;;;;;;;;;;;;18.79;46.24;102384.34;7283944;19;151957;-50
2022/02/08 04:50:43;;;;;;;;;;;;;;;18.75;46.09;102392.41;7286351;19;153274;-50
2022/02/08 04:53:18;;;;;;;;;;;;;;;18.74;46.16;102395.47;7283853;19;153702;-50
2022/02/08 04:55:55;;;;;;;;;;;;;;;18.74;46.34;102387.91;7281165;19;153955;-50
2022/02/08 05:29:39;;;;;;;;;;;;;;;19.01;47.42;102390.75;7283211;19;152827;-51
2022/02/08 05:49:02;;;;;;;;;;;;;;;19.52;46.98;102398.59;7288806;19;153566;-51
2022/02/08 05:54:00;;;;;;;;;;;;;;;19.65;46.54;102402.91;7278834;19;152143;-49
2022/02/08 05:56:27;;;;;;;;;;;;;;;19.72;46.80;102409.13;7292168;19;152465;-50
2022/02/08 05:58:54;;;;;;;;;;;;;;;19.78;46.60;102410.03;7288675;19;152008;-49
2022/02/08 06:01:21;;;;;;;;;;;;;;;19.84;46.04;102407.00;7288066;19;152127;-49
2022/02/08 06:03:48;;;;;;;;;;;;;;;19.90;45.84;102408.72;7286257;19;154158;-49
2022/02/08 06:06:15;;;;;;;;;;;;;;;19.96;46.29;102402.03;7287826;19;151737;-50
2022/02/08 06:08:42;;;;;;;;;;;;;;;20.04;46.82;102413.88;7286609;19;152795;-50
2022/02/08 06:11:15;;;;;;;;;;;;;;;20.10;46.03;102410.00;7284056;19;154663;-50
2022/02/08 06:13:42;;;;;;;;;;;;;;;20.14;45.98;102400.78;7284660;19;151976;-49
2022/02/08 06:18:39;;;;;;;;;;;;;;;20.25;46.05;102408.16;7292222;19;153322;-49
2022/02/08 06:21:07;;;;;;;;;;;;;;;20.31;46.10;102407.06;7287994;19;153403;-49
2022/02/08 06:23:34;;;;;;;;;;;;;;;20.35;45.79;102405.41;7286741;19;155052;-49
2022/02/08 06:26:01;;;;;;;;;;;;;;;20.41;45.39;102403.50;7285966;19;151947;-49
2022/02/08 06:28:29;;;;;;;;;;;;;;;20.47;45.50;102395.94;7283460;19;152624;-49
2022/02/08 06:30:56;;;;;;;;;;;;;;;20.50;45.02;102387.81;7286179;19;153390;-49
2022/02/08 06:33:23;;;;;;;;;;;;;;;20.56;44.90;102392.34;7284018;19;151941;-49
2022/02/08 06:35:50;;;;;;;;;;;;;;;20.63;45.63;102397.69;7289370;19;152757;-49
2022/02/08 06:38:19;;;;;;;;;;;;;;;20.67;46.09;102396.88;7284762;19;154270;-50
2022/02/08 06:40:49;;;;;;;;;;;;;;;20.72;45.75;102396.91;7294451;19;152687;-49
2022/02/08 06:43:18;;;;;;;;;;;;;;;20.77;45.35;102391.31;7286210;19;153931;-50
2022/02/08 06:45:45;;;;;;;;;;;;;;;20.82;45.68;102393.28;7285994;19;151497;-49
2022/02/08 06:48:13;;;;;;;;;;;;;;;20.85;45.59;102396.38;7286701;19;153319;-50
2022/02/08 06:50:40;;;;;;;;;;;;;;;20.91;45.47;102410.47;7281958;19;153468;-50
2022/02/08 06:53:07;;;;;;;;;;;;;;;20.95;45.38;102412.44;7286489;19;152178;-50
2022/02/08 06:55:34;;;;;;;;;;;;;;;21.01;45.48;102413.31;7287293;19;153095;-49
2022/02/08 07:00:35;;;;;;;;;;;;;;;21.08;45.10;102419.50;7283816;19;151984;-50
2022/02/08 07:03:08;;;;;;;;;;;;;;;21.13;45.00;102425.16;7293671;19;152895;-49
2022/02/08 07:05:36;;;;;;;;;;;;;;;21.18;45.19;102425.19;7286931;19;152130;-50
2022/02/08 07:08:03;;;;;;;;;;;;;;;21.22;44.41;102431.94;7281193;19;152738;-49
2022/02/08 07:10:32;;;;;;;;;;;;;;;21.25;44.49;102422.97;7285227;19;154463;-50
2022/02/08 07:13:00;;;;;;;;;;;;;;;21.30;44.32;102423.00;7286498;19;152526;-48
2022/02/08 07:15:27;;;;;;;;;;;;;;;21.35;44.67;102428.59;7284601;19;153131;-49
2022/02/08 07:17:54;;;;;;;;;;;;;;;21.40;44.81;102434.22;7285529;19;152836;-49
2022/02/08 07:20:21;;;;;;;;;;;;;;;21.49;44.11;102437.34;7286146;19;152536;-49
2022/02/08 07:22:49;;;;;;;;;;;;;;;21.50;43.89;102442.69;7284034;19;153757;-50
2022/02/08 07:25:16;;;;;;;;;;;;;;;21.52;43.15;102439.63;7288115;19;152597;-49
2022/02/08 07:27:43;;;;;;;;;;;;;;;21.55;43.21;102433.41;7286395;19;153213;-49
2022/02/08 07:30:12;;;;;;;;;;;;;;;21.58;42.51;102446.91;7284019;19;153619;-49
2022/02/08 07:32:40;;;;;;;;;;;;;;;21.61;42.65;102444.41;7283239;19;151942;-49
2022/02/08 07:40:16;;;;;;;;;;;;;;;21.69;41.90;102448.63;7285927;19;151662;-50
2022/02/08 07:42:44;;;;;;;;;;;;;;;21.48;39.14;102449.75;7284673;19;152650;-50
2022/02/08 07:45:11;;;;;;;;;;;;;;;21.56;39.79;102443.56;7283691;19;152963;-50
2022/02/08 07:47:39;;;;;;;;;;;;;;;21.55;39.60;102445.53;7291529;19;151751;-50
2022/02/08 07:50:06;;;;;;;;;;;;;;;21.55;40.20;102450.28;7284447;19;153449;-50
2022/02/08 07:52:33;;;;;;;;;;;;;;;21.50;39.92;102453.94;7280409;19;152512;-50
2022/02/08 07:55:00;;;;;;;;;;;;;;;21.47;39.90;102443.25;7283986;19;153463;-50
2022/02/08 07:57:27;;;;;;;;;;;;;;;21.47;39.54;102445.22;7284625;19;154326;-50
2022/02/08 07:59:54;;;;;;;;;;;;;;;21.43;39.78;102456.19;7283221;19;151967;-52
2022/02/08 08:02:22;;;;;;;;;;;;;;;21.40;39.73;102459.53;7282986;19;153475;-50
2022/02/08 08:04:49;;;;;;;;;;;;;;;21.37;39.84;102459.25;7281477;19;154317;-50
2022/02/08 08:07:16;;;;;;;;;;;;;;;21.34;39.67;102452.25;7291712;19;153441;-51
2022/02/08 08:09:44;;;;;;;;;;;;;;;21.32;39.39;102459.25;7282759;19;153941;-50
2022/02/08 08:12:15;;;;;;;;;;;;;;;21.28;39.58;102458.97;7281260;19;152155;-50
2022/02/08 08:14:44;;;;;;;;;;;;;;;21.24;39.42;102467.09;7284921;19;153741;-50
2022/02/08 08:19:47;;;;;;;;;;;;;;;21.21;39.40;102469.63;7285102;19;151946;-50
2022/02/08 08:22:14;;;;;;;;;;;;;;;21.22;39.48;102472.16;7282251;19;153415;-50
2022/02/08 08:24:41;;;;;;;;;;;;;;;21.19;39.48;102467.09;7283291;19;153403;-52
2022/02/08 08:27:09;;;;;;;;;;;;;;;21.16;39.49;102472.41;7284316;19;151844;-51
2022/02/08 08:29:36;;;;;;;;;;;;;;;21.14;39.68;102469.88;7288054;19;153823;-51
2022/02/08 08:32:04;;;;;;;;;;;;;;;21.16;39.59;102473.28;7283814;19;152514;-51
2022/02/08 08:34:33;;;;;;;;;;;;;;;21.14;40.10;102480.28;7283298;19;153609;-51
2022/02/08 08:37:00;;;;;;;;;;;;;;;21.10;39.90;102468.72;7281230;19;153946;-51
2022/02/08 08:39:36;;;;;;;;;;;;;;;21.06;40.29;102464.75;7284306;19;153389;-51
2022/02/08 08:52:03;;;;;;;;;;;;;;;20.96;39.97;102472.28;7285924;19;153324;-51
2022/02/08 08:54:30;;;;;;;;;;;;;;;20.94;40.28;102475.38;7282965;19;151688;-51
2022/02/08 08:56:57;;;;;;;;;;;;;;;20.92;39.85;102482.41;7281235;19;152813;-51
2022/02/08 08:59:25;;;;;;;;;;;;;;;20.90;39.89;102488.28;7282085;19;151759;-51
2022/02/08 09:01:52;;;;;;;;;;;;;;;20.86;40.10;102490.78;7278911;19;152721;-51
2022/02/08 09:04:20;;;;;;;;;;;;;;;20.83;40.19;102485.72;7281249;19;153891;-51
2022/02/08 09:06:49;;;;;;;;;;;;;;;20.81;40.00;102487.97;7282290;19;152261;-51
2022/02/08 09:09:20;;;;;;;;;;;;;;;20.81;39.84;102492.72;7281856;19;153657;-51
2022/02/08 09:11:56;;;;;;;;;;;;;;;20.79;40.06;102498.63;7279200;19;152351;-51
2022/02/08 09:14:41;;;;;;;;;;;;;;;20.76;39.81;102487.94;7290068;19;151886;-51
2022/02/08 09:32:14;;;;;;;;;;;;;;;20.52;39.96;102478.25;7278125;19;153262;-51
2022/02/08 09:34:42;;;;;;;;;;;;;;;20.52;39.69;102492.28;7279756;19;151921;-51
2022/02/08 09:37:10;;;;;;;;;;;;;;;20.50;40.16;102479.63;7285500;19;152703;-51
2022/02/08 09:39:38;;;;;;;;;;;;;;;20.46;39.94;102481.28;7277691;19;152141;-51
2022/02/08 09:42:07;;;;;;;;;;;;;;;20.44;39.90;102481.56;7277723;19;153497;-51
2022/02/08 09:44:35;;;;;;;;;;;;;;;20.42;40.11;102481.84;7280329;19;153386;-50
2022/02/08 09:47:05;;;;;;;;;;;;;;;20.39;40.13;102489.97;7281359;19;151941;-50
2022/02/08 09:49:33;;;;;;;;;;;;;;;20.36;40.12;102485.72;7276060;19;153749;-50
2022/02/08 09:52:00;;;;;;;;;;;;;;;20.35;40.01;102488.81;7278766;19;154162;-51
2022/02/08 09:54:28;;;;;;;;;;;;;;;20.31;39.81;102493.25;7282569;19;152341;-50
2022/02/08 09:56:55;;;;;;;;;;;;;;;20.29;39.94;102487.88;7281663;19;152657;-51
2022/02/08 09:59:22;;;;;;;;;;;;;;;20.26;40.00;102476.38;7286295;19;151973;-51
2022/02/08 10:01:51;;;;;;;;;;;;;;;20.24;39.96;102479.44;7281652;19;155245;-52
2022/02/08 10:04:18;;;;;;;;;;;;;;;20.22;40.26;102484.44;7279521;19;153866;-53
2022/02/08 10:06:46;;;;;;;;;;;;;;;20.20;40.23;102480.22;7281511;19;152008;-51
2022/02/08 10:09:13;;;;;;;;;;;;;;;20.18;40.16;102476.84;7281318;19;153174;-50
2022/02/08 10:21:49;;;;;;;;;;;;;;;20.04;40.31;102476.44;7288353;19;153022;-50
2022/02/08 10:24:17;;;;;;;;;;;;;;;20.02;40.01;102472.22;7286379;19;152843;-50
2022/02/08 10:29:13;;;;;;;;;;;;;;;19.97;40.33;102475.84;7285166;19;153239;-50
2022/02/08 10:39:15;;;;;;;;;;;;;;;19.88;40.24;102483.91;7286355;19;154057;-50
2022/02/08 10:41:46;;;;;;;;;;;;;;;19.86;40.15;102479.66;7294239;19;151580;-50
2022/02/08 10:44:13;;;;;;;;;;;;;;;19.84;40.24;102482.75;7286565;19;153874;-50
2022/02/08 10:46:41;;;;;;;;;;;;;;;19.81;40.59;102474.00;7286833;19;152090;-50
2022/02/08 10:49:10;;;;;;;;;;;;;;;19.80;40.14;102484.41;7285662;19;153508;-50
2022/02/08 10:51:45;;;;;;;;;;;;;;;19.80;40.16;102477.94;7285168;19;154184;-50
2022/02/08 10:54:18;;;;;;;;;;;;;;;19.76;40.48;102474.78;7287174;19;152530;-50
2022/02/08 10:56:50;;;;;;;;;;;;;;;19.75;40.59;102481.53;7284849;19;153693;-50
2022/02/08 10:59:35;;;;;;;;;;;;;;;19.72;40.72;102479.25;7284241;19;152776;-50
2022/02/08 11:02:10;;;;;;;;;;;;;;;19.70;40.71;102478.69;7285120;19;152097;-50
2022/02/08 11:07:17;;;;;;;;;;;;;;;19.67;40.41;102479.19;7281835;19;152433;-50
2022/02/08 11:09:57;;;;;;;;;;;;;;;19.65;40.81;102478.63;7284900;19;151744;-50
2022/02/08 11:12:32;;;;;;;;;;;;;;;19.62;40.63;102493.19;7282748;19;153570;-50
2022/02/08 11:25:17;;;;;;;;;;;;;;;19.53;40.87;102480.75;7282430;19;153671;-50
2022/02/08 11:27:50;;;;;;;;;;;;;;;19.52;41.03;102485.50;7293226;19;153539;-50
2022/02/08 11:30:22;;;;;;;;;;;;;;;19.51;41.12;102481.00;7284397;19;151973;-50
2022/02/08 11:43:28;;;;;;;;;;;;;;;19.43;41.08;102469.41;7283836;19;152335;-50
2022/02/08 11:45:59;;;;;;;;;;;;;;;19.41;41.32;102474.41;7285084;19;153224;-50
2022/02/08 11:51:34;;;;;;;;;;;;;;;19.36;41.02;102457.53;7293682;19;151523;-50
2022/02/08 11:54:18;;;;;;;;;;;;;;;19.34;41.08;102465.38;7280394;19;153789;-50
2022/02/08 12:04:54;;;;;;;;;;;;;;;19.25;41.20;102458.53;7283372;19;151639;-50
2022/02/08 12:07:22;;;;;;;;;;;;;;;19.24;41.63;102460.50;7284064;19;152209;-50
2022/02/08 12:33:03;;;;;;;;;;;;;;;19.14;41.91;102453.91;7284256;19;151796;-50
2022/02/08 12:56:07;;;;;;;;;;;;;;;19.00;41.86;102434.72;7281127;19;153483;-50
2022/02/08 12:58:53;;;;;;;;;;;;;;;19.00;41.67;102422.66;7289141;19;154002;-50
2022/02/08 13:04:06;;;;;;;;;;;;;;;18.98;42.06;102425.75;7280638;19;153604;-51
2022/02/08 14:10:42;;;;;;;;;;;;;;;18.70;42.30;102414.75;7287754;19;152073;-50
2022/02/08 14:33:52;;;;;;;;;;;;;;;18.58;42.20;102392.47;7286248;19;154155;-52
2022/02/08 15:09:26;;;;;;;;;;;;;;;18.50;42.64;102392.03;7286701;19;153589;-52
2022/02/08 15:14:26;;;;;;;;;;;;;;;18.49;42.58;102393.13;7277136;19;153506;-52
2022/02/08 15:16:54;;;;;;;;;;;;;;;18.48;42.51;102389.53;7279603;19;153014;-52
2022/02/08 15:19:22;;;;;;;;;;;;;;;18.47;42.69;102390.63;7285584;19;153683;-52
2022/02/08 15:21:50;;;;;;;;;;;;;;;18.47;42.82;102390.63;7284170;19;152351;-52
2022/02/08 15:24:17;;;;;;;;;;;;;;;18.47;43.01;102382.22;7282849;19;152610;-52
2022/02/08 15:26:47;;;;;;;;;;;;;;;18.46;42.61;102397.31;7285872;19;152874;-51
2022/02/08 15:29:16;;;;;;;;;;;;;;;18.46;42.57;102391.72;7283993;19;152412;-52
2022/02/08 15:31:43;;;;;;;;;;;;;;;18.45;43.14;102394.75;7285722;19;151861;-52
2022/02/08 15:34:11;;;;;;;;;;;;;;;18.44;42.88;102390.28;7279973;19;153250;-52
2022/02/08 15:36:39;;;;;;;;;;;;;;;18.44;43.01;102388.31;7291078;19;154547;-52
2022/02/08 15:39:08;;;;;;;;;;;;;;;18.44;42.87;102388.31;7282685;19;153490;-52
2022/02/08 15:41:39;;;;;;;;;;;;;;;18.43;43.14;102388.59;7283596;19;152945;-52
2022/02/08 15:44:08;;;;;;;;;;;;;;;18.42;43.06;102384.94;7285447;19;152099;-52
2022/02/08 15:46:36;;;;;;;;;;;;;;;18.44;42.87;102381.91;7282141;19;153314;-52
2022/02/08 15:49:03;;;;;;;;;;;;;;;18.43;43.07;102383.00;7283850;19;152173;-52
2022/02/08 15:51:38;;;;;;;;;;;;;;;18.41;42.76;102376.81;7281250;19;152582;-52
2022/02/08 16:09:18;;;;;;;;;;;;;;;18.38;43.15;102346.56;7279353;19;152980;-52
2022/02/08 16:27:02;;;;;;;;;;;;;;;18.48;43.07;102353.13;7284397;19;152741;-51
2022/02/08 16:52:51;;;;;;;;;;;;;;;19.05;42.98;102366.69;7282638;19;151911;-51
2022/02/08 17:00:23;;;;;;;;;;;;;;;19.25;42.44;102366.91;7282351;19;152304;-50
2022/02/08 17:03:11;;;;;;;;;;;;;;;19.32;42.31;102361.94;7276895;19;153743;-51
2022/02/08 17:05:38;;;;;;;;;;;;;;;19.39;42.29;102359.78;7284755;19;154146;-50
2022/02/08 17:08:10;;;;;;;;;;;;;;;19.45;42.34;102350.31;7280523;19;153339;-51
2022/02/08 17:10:42;;;;;;;;;;;;;;;19.52;42.15;102355.72;7278320;19;153470;-51
2022/02/08 17:46:15;;;;;;;;;;;;;;;20.34;41.08;102372.03;7286281;19;154099;-50
2022/02/08 17:48:44;;;;;;;;;;;;;;;20.39;40.99;102364.47;7287402;19;152286;-51
2022/02/08 17:51:11;;;;;;;;;;;;;;;20.44;40.97;102374.03;7294353;19;153440;-50
2022/02/08 17:53:58;;;;;;;;;;;;;;;20.49;41.18;102379.69;7286062;19;153240;-51
2022/02/08 17:56:25;;;;;;;;;;;;;;;20.53;40.90;102378.00;7283355;19;153005;-51
2022/02/08 17:58:59;;;;;;;;;;;;;;;20.55;41.06;102381.38;7284603;19;152364;-51
2022/02/08 18:01:26;;;;;;;;;;;;;;;20.58;40.73;102381.66;7285794;19;152217;-51
2022/02/08 18:03:54;;;;;;;;;;;;;;;20.61;40.64;102381.16;7286178;19;152793;-51
2022/02/08 18:06:21;;;;;;;;;;;;;;;20.63;40.98;102380.84;7286189;19;154102;-51
2022/02/08 18:08:48;;;;;;;;;;;;;;;20.66;40.67;102381.16;7284431;19;151965;-51
2022/02/08 18:11:16;;;;;;;;;;;;;;;20.67;40.88;102370.78;7287260;19;152507;-51
2022/02/08 18:13:44;;;;;;;;;;;;;;;20.68;40.46;102373.28;7292791;19;152601;-51
2022/02/08 18:16:13;;;;;;;;;;;;;;;20.69;40.72;102372.19;7280128;19;153688;-51
2022/02/08 18:18:43;;;;;;;;;;;;;;;20.71;40.69;102371.91;7281214;19;154346;-51
2022/02/08 18:24:16;;;;;;;;;;;;;;;20.73;40.21;102378.09;7286625;19;153345;-51
2022/02/08 19:21:45;;;;;;;;;;;;;;;20.47;40.03;102384.72;7282130;19;152578;-56
2022/02/08 19:24:18;;;;;;;;;;;;;;;20.44;40.35;102379.66;7283319;19;152124;-51
2022/02/08 19:26:49;;;;;;;;;;;;;;;20.42;39.99;102386.38;7283007;19;153469;-52
2022/02/08 19:29:17;;;;;;;;;;;;;;;20.39;40.28;102375.72;7285397;19;152229;-51
2022/02/08 19:31:45;;;;;;;;;;;;;;;20.37;40.37;102363.91;7282607;19;155041;-50
2022/02/08 19:34:12;;;;;;;;;;;;;;;20.37;39.98;102368.66;7282920;19;154057;-51
2022/02/08 19:36:42;;;;;;;;;;;;;;;20.34;40.04;102369.22;7282512;19;151736;-50
2022/02/08 19:39:09;;;;;;;;;;;;;;;20.32;40.11;102354.59;7283359;19;153381;-51
2022/02/08 19:41:36;;;;;;;;;;;;;;;20.30;40.49;102354.03;7288487;19;152780;-51
2022/02/08 19:44:05;;;;;;;;;;;;;;;20.28;40.15;102359.88;7284896;19;152312;-51
2022/02/08 19:46:33;;;;;;;;;;;;;;;20.26;40.39;102352.88;7281571;19;153488;-53
2022/02/08 19:49:00;;;;;;;;;;;;;;;20.24;40.19;102350.31;7280286;19;152067;-51
2022/02/08 19:51:28;;;;;;;;;;;;;;;20.21;40.58;102348.06;7283257;19;153086;-52
2022/02/08 19:53:57;;;;;;;;;;;;;;;20.20;40.72;102353.94;7282978;19;154289;-49
2022/02/08 19:56:31;;;;;;;;;;;;;;;20.18;40.29;102358.97;7282701;19;152113;-50
2022/02/08 19:59:00;;;;;;;;;;;;;;;20.16;40.49;102367.69;7282315;19;151894;-50
2022/02/08 20:06:27;;;;;;;;;;;;;;;20.09;40.49;102350.22;7282093;19;152430;-49
2022/02/08 20:08:54;;;;;;;;;;;;;;;20.05;40.60;102351.88;7278753;19;151841;-50
2022/02/08 20:11:22;;;;;;;;;;;;;;;20.04;40.76;102347.38;7281318;19;153733;-50
2022/02/08 20:13:52;;;;;;;;;;;;;;;20.01;40.55;102356.34;7281105;19;153820;-50
2022/02/08 20:16:19;;;;;;;;;;;;;;;19.99;40.63;102351.00;7279951;19;152592;-50
2022/02/08 20:18:52;;;;;;;;;;;;;;;19.95;40.78;102349.84;7278801;19;152056;-50
2022/02/08 20:21:19;;;;;;;;;;;;;;;19.94;40.89;102353.78;7279349;19;154558;-50
2022/02/08 20:23:47;;;;;;;;;;;;;;;19.91;40.98;102351.50;7283418;19;152100;-50
2022/02/08 20:26:14;;;;;;;;;;;;;;;19.90;41.07;102363.00;7287306;19;153938;-50
2022/02/08 20:31:12;;;;;;;;;;;;;;;19.88;40.83;102345.59;7283239;19;152095;-50
2022/02/08 20:33:40;;;;;;;;;;;;;;;19.84;40.71;102364.94;7281477;19;154249;-50
2022/02/08 20:36:07;;;;;;;;;;;;;;;19.82;40.73;102355.94;7281435;19;152115;-50
2022/02/08 20:38:35;;;;;;;;;;;;;;;19.80;41.04;102341.34;7281726;19;153804;-50
2022/02/08 20:41:03;;;;;;;;;;;;;;;19.77;41.15;102347.47;7282144;19;154556;-49
2022/02/08 20:43:35;;;;;;;;;;;;;;;19.76;41.13;102347.78;7280712;19;151967;-49
2022/02/08 20:46:05;;;;;;;;;;;;;;;19.75;41.21;102354.50;7281803;19;153580;-49
2022/02/08 20:48:34;;;;;;;;;;;;;;;19.73;41.24;102354.75;7289346;19;151762;-51
2022/02/08 20:51:02;;;;;;;;;;;;;;;19.71;41.35;102358.94;7279833;19;152744;-51
2022/02/08 20:58:50;;;;;;;;;;;;;;;19.66;41.08;102350.50;7280785;19;153849;-52
2022/02/08 21:01:17;;;;;;;;;;;;;;;19.62;41.33;102347.38;7281363;19;154228;-51
2022/02/08 21:06:20;;;;;;;;;;;;;;;19.60;41.18;102354.34;7282744;19;153481;-54
2022/02/08 21:08:47;;;;;;;;;;;;;;;19.57;41.35;102350.16;7284387;19;153696;-51
2022/02/08 21:11:18;;;;;;;;;;;;;;;19.55;41.34;102349.56;7278281;19;152065;-49
2022/02/08 21:16:16;;;;;;;;;;;;;;;19.51;41.19;102338.03;7279998;19;152285;-54
2022/02/08 21:18:43;;;;;;;;;;;;;;;19.48;41.36;102341.38;7278538;19;152566;-50
2022/02/08 21:21:10;;;;;;;;;;;;;;;19.48;41.67;102337.75;7273160;19;153498;-50
2022/02/08 21:23:39;;;;;;;;;;;;;;;19.46;41.50;102335.19;7280331;19;151892;-50
2022/02/08 21:26:10;;;;;;;;;;;;;;;19.44;41.57;102320.59;7278078;19;153797;-50
2022/02/08 21:53:46;;;;;;;;;;;;;;;19.76;41.88;102326.16;7285293;19;152867;-52
2022/02/08 21:56:16;;;;;;;;;;;;;;;19.83;42.16;102321.19;7274981;19;152114;-57
2022/02/08 21:58:44;;;;;;;;;;;;;;;19.94;42.09;102319.28;7274721;19;153357;-51
2022/02/08 22:01:12;;;;;;;;;;;;;;;19.97;42.23;102313.13;7272159;19;154606;-51
2022/02/08 22:03:40;;;;;;;;;;;;;;;19.99;42.30;102308.06;7272478;19;153049;-51
2022/02/08 22:06:07;;;;;;;;;;;;;;;20.04;41.81;102315.69;7275262;19;153857;-51
2022/02/08 22:08:39;;;;;;;;;;;;;;;20.10;41.86;102325.81;7274312;19;154601;-53
2022/02/08 22:31:11;;;;;;;;;;;;;;;20.54;41.35;102303.88;7283343;19;152431;-51